createdAt,value
2019-01-03T00:00:48.855Z,30.3
2019-01-03T00:01:48.942Z,30.3
2019-01-03T00:02:48.900Z,30.3
2019-01-03T00:03:48.862Z,30.3
2019-01-03T00:04:48.887Z,30.3
2019-01-03T00:05:48.907Z,33.3
2019-01-03T00:06:48.830Z,30.3
2019-01-03T00:07:48.909Z,30.3
2019-01-03T00:08:48.951Z,30.3
2019-01-03T00:09:48.906Z,33.3
2019-01-03T00:10:48.946Z,33.3
2019-01-03T00:11:48.896Z,33.3
2019-01-03T00:12:48.940Z,36.3
2019-01-03T00:13:48.906Z,33.3
2019-01-03T00:14:48.891Z,36.3
2019-01-03T00:15:48.914Z,30.3
2019-01-03T00:16:48.862Z,33.3
2019-01-03T00:17:48.957Z,36.3
2019-01-03T00:18:48.853Z,33.3
2019-01-03T00:19:48.861Z,33.3
2019-01-03T00:20:48.946Z,30.3
2019-01-03T00:21:48.876Z,33.3
2019-01-03T00:22:48.822Z,33.3
2019-01-03T00:23:48.916Z,33.3
2019-01-03T00:24:48.947Z,36.3
2019-01-03T00:25:48.902Z,30.3
2019-01-03T00:26:54.949Z,36.3
2019-01-03T00:27:48.903Z,30.3
2019-01-03T00:28:48.870Z,33.3
2019-01-03T00:29:48.896Z,33.3
2019-01-03T00:30:48.879Z,33.3
2019-01-03T00:31:48.826Z,36.3
2019-01-03T00:32:48.831Z,36.3
2019-01-03T00:33:48.796Z,36.3
2019-01-03T00:34:48.793Z,30.3
2019-01-03T00:35:48.822Z,33.3
2019-01-03T00:36:48.888Z,36.3
2019-01-03T00:37:48.818Z,33.3
2019-01-03T00:38:48.819Z,33.3
2019-01-03T00:39:48.790Z,30.3
2019-01-03T00:40:49.894Z,33.3
2019-01-03T00:41:48.829Z,30.3
2019-01-03T00:42:48.826Z,33.3
2019-01-03T00:43:48.813Z,36.3
2019-01-03T00:44:48.800Z,36.3
2019-01-03T00:45:48.894Z,36.3
2019-01-03T00:46:48.826Z,33.3
2019-01-03T00:47:48.816Z,36.3
2019-01-03T00:48:50.151Z,33.3
2019-01-03T00:49:48.892Z,36.3
2019-01-03T00:50:48.794Z,33.3
2019-01-03T00:51:48.825Z,36.3
2019-01-03T00:52:48.811Z,33.3
2019-01-03T00:53:48.807Z,30.3
2019-01-03T00:54:48.893Z,30.3
2019-01-03T00:55:48.790Z,30.3
2019-01-03T00:56:48.832Z,27.3
2019-01-03T00:57:48.883Z,27.3
2019-01-03T00:58:48.869Z,27.3
2019-01-03T00:59:48.809Z,24.3
2019-01-03T01:00:48.883Z,21.3
2019-01-03T01:01:48.794Z,21.3
2019-01-03T01:02:48.824Z,27.3
2019-01-03T01:03:48.876Z,27.3
2019-01-03T01:04:48.819Z,24.3
2019-01-03T01:05:49.041Z,21.3
2019-01-03T01:06:48.862Z,24.3
2019-01-03T01:07:48.824Z,21.3
2019-01-03T01:08:48.833Z,24.3
2019-01-03T01:09:48.826Z,24.3
2019-01-03T01:10:48.899Z,24.3
2019-01-03T01:11:48.801Z,24.3
2019-01-03T01:12:48.805Z,24.3
2019-01-03T01:13:48.857Z,24.3
2019-01-03T01:14:48.899Z,24.3
2019-01-03T01:15:48.813Z,27.3
2019-01-03T01:16:48.813Z,27.3
2019-01-03T01:17:48.779Z,27.3
2019-01-03T01:18:48.823Z,27.3
2019-01-03T01:19:48.880Z,24.3
2019-01-03T01:20:48.800Z,27.3
2019-01-03T01:21:48.806Z,30.3
2019-01-03T01:22:48.788Z,30.3
2019-01-03T01:23:48.825Z,24.3
2019-01-03T01:24:48.882Z,27.3
2019-01-03T01:25:48.806Z,27.3
2019-01-03T01:26:48.800Z,30.3
2019-01-03T01:27:48.793Z,27.3
2019-01-03T01:28:48.771Z,30.3
2019-01-03T01:29:48.854Z,27.3
2019-01-03T01:30:48.806Z,30.3
2019-01-03T01:31:48.792Z,24.3
2019-01-03T01:32:48.858Z,30.3
2019-01-03T01:33:48.774Z,30.3
2019-01-03T01:34:48.810Z,30.3
2019-01-03T01:35:48.802Z,33.3
2019-01-03T01:36:48.872Z,30.3
2019-01-03T01:37:48.788Z,39.3
2019-01-03T01:38:48.809Z,33.3
2019-01-03T01:39:48.766Z,33.3
2019-01-03T01:40:48.900Z,39.3
2019-01-03T01:41:48.864Z,30.3
2019-01-03T01:42:48.789Z,30.3
2019-01-03T01:43:48.805Z,27.3
2019-01-03T01:44:48.757Z,30.3
2019-01-03T01:45:48.856Z,30.3
2019-01-03T01:46:48.792Z,30.3
2019-01-03T01:47:48.792Z,27.3
2019-01-03T01:48:48.855Z,30.3
2019-01-03T01:49:48.801Z,24.3
2019-01-03T01:50:48.829Z,36.3
2019-01-03T01:51:48.792Z,33.3
2019-01-03T01:52:48.795Z,36.3
2019-01-03T01:53:48.792Z,42.3
2019-01-03T01:54:48.790Z,36.3
2019-01-03T01:55:48.808Z,39.3
2019-01-03T01:56:48.866Z,33.3
2019-01-03T01:57:48.848Z,30.3
2019-01-03T01:58:48.779Z,33.3
2019-01-03T01:59:48.790Z,33.3
2019-01-03T02:00:48.876Z,30.3
2019-01-03T02:01:48.780Z,33.3
2019-01-03T02:02:48.866Z,33.3
2019-01-03T02:03:48.881Z,39.3
2019-01-03T02:04:48.797Z,33.3
2019-01-03T02:05:48.783Z,30.3
2019-01-03T02:06:48.766Z,30.3
2019-01-03T02:07:48.779Z,36.3
2019-01-03T02:08:48.832Z,33.3
2019-01-03T02:09:48.801Z,39.3
2019-01-03T02:10:48.797Z,36.3
2019-01-03T02:11:48.840Z,42.3
2019-01-03T02:12:48.788Z,33.3
2019-01-03T02:13:48.778Z,39.3
2019-01-03T02:14:48.781Z,42.3
2019-01-03T02:15:48.795Z,36.3
2019-01-03T02:16:48.833Z,39.3
2019-01-03T02:17:48.773Z,36.3
2019-01-03T02:18:48.766Z,39.3
2019-01-03T02:19:48.847Z,36.3
2019-01-03T02:20:48.776Z,36.3
2019-01-03T02:21:48.796Z,36.3
2019-01-03T02:22:48.755Z,39.3
2019-01-03T02:23:48.776Z,33.3
2019-01-03T02:24:48.838Z,33.3
2019-01-03T02:25:48.781Z,36.3
2019-01-03T02:26:48.767Z,36.3
2019-01-03T02:27:48.778Z,33.3
2019-01-03T02:28:48.819Z,36.3
2019-01-03T02:29:48.766Z,39.3
2019-01-03T02:30:48.766Z,36.3
2019-01-03T02:31:48.850Z,39.3
2019-01-03T02:32:48.777Z,36.3
2019-01-03T02:33:48.753Z,30.3
2019-01-03T02:34:48.753Z,33.3
2019-01-03T02:35:48.849Z,36.3
2019-01-03T02:36:48.772Z,33.3
2019-01-03T02:37:48.779Z,45.3
2019-01-03T02:38:48.764Z,39.3
2019-01-03T02:39:48.750Z,39.3
2019-01-03T02:40:48.843Z,39.3
2019-01-03T02:41:48.790Z,45.3
2019-01-03T02:42:48.761Z,36.3
2019-01-03T02:43:48.779Z,39.3
2019-01-03T02:44:48.732Z,42.3
2019-01-03T02:45:48.835Z,39.3
2019-01-03T02:46:48.774Z,48.3
2019-01-03T02:47:48.785Z,36.3
2019-01-03T02:48:48.780Z,51.3
2019-01-03T02:49:48.840Z,42.3
2019-01-03T02:50:48.798Z,45.3
2019-01-03T02:51:48.756Z,42.3
2019-01-03T02:52:48.760Z,48.3
2019-01-03T02:53:48.840Z,45.3
2019-01-03T02:54:48.754Z,48.3
2019-01-03T02:55:48.782Z,45.3
2019-01-03T02:56:48.763Z,45.3
2019-01-03T02:57:48.762Z,48.3
2019-01-03T02:58:48.842Z,48.3
2019-01-03T02:59:48.961Z,45.3
2019-01-03T03:00:48.737Z,42.3
2019-01-03T03:01:48.741Z,42.3
2019-01-03T03:02:48.817Z,42.3
2019-01-03T03:03:48.762Z,48.3
2019-01-03T03:04:48.754Z,42.3
2019-01-03T03:05:48.763Z,45.3
2019-01-03T03:06:48.731Z,45.3
2019-01-03T03:07:48.835Z,45.3
2019-01-03T03:08:48.754Z,42.3
2019-01-03T03:09:48.747Z,45.3
2019-01-03T03:10:48.756Z,48.3
2019-01-03T03:11:48.752Z,42.3
2019-01-03T03:12:48.769Z,42.3
2019-01-03T03:13:48.757Z,42.3
2019-01-03T03:14:48.768Z,36.3
2019-01-03T03:15:48.835Z,54.3
2019-01-03T03:16:48.749Z,48.3
2019-01-03T03:17:48.739Z,42.3
2019-01-03T03:18:48.792Z,48.3
2019-01-03T03:19:48.758Z,48.3
2019-01-03T03:20:48.804Z,48.3
2019-01-03T03:21:48.789Z,42.3
2019-01-03T03:22:48.763Z,42.3
2019-01-03T03:23:48.791Z,39.3
2019-01-03T03:24:48.771Z,42.3
2019-01-03T03:25:48.746Z,42.3
2019-01-03T03:26:48.752Z,39.3
2019-01-03T03:27:48.814Z,48.3
2019-01-03T03:28:48.760Z,48.3
2019-01-03T03:29:48.832Z,42.3
2019-01-03T03:30:48.763Z,42.3
2019-01-03T03:31:48.772Z,42.3
2019-01-03T03:32:48.742Z,42.3
2019-01-03T03:33:48.723Z,39.3
2019-01-03T03:34:48.800Z,39.3
2019-01-03T03:35:48.743Z,39.3
2019-01-03T03:36:48.752Z,39.3
2019-01-03T03:37:48.742Z,36.3
2019-01-03T03:38:48.738Z,36.3
2019-01-03T03:39:48.777Z,36.3
2019-01-03T03:40:48.726Z,42.3
2019-01-03T03:41:48.761Z,36.3
2019-01-03T03:42:48.745Z,39.3
2019-01-03T03:43:48.802Z,42.3
2019-01-03T03:44:48.758Z,42.3
2019-01-03T03:45:48.743Z,36.3
2019-01-03T03:46:48.730Z,39.3
2019-01-03T03:47:48.830Z,36.3
2019-01-03T03:48:48.745Z,39.3
2019-01-03T03:49:48.731Z,39.3
2019-01-03T03:50:48.705Z,39.3
2019-01-03T03:51:48.747Z,39.3
2019-01-03T03:52:48.802Z,39.3
2019-01-03T03:53:48.731Z,36.3
2019-01-03T03:54:48.746Z,42.3
2019-01-03T03:55:48.788Z,36.3
2019-01-03T03:56:48.739Z,45.3
2019-01-03T03:57:48.741Z,39.3
2019-01-03T03:58:48.731Z,39.3
2019-01-03T03:59:48.732Z,42.3
2019-01-03T04:00:48.776Z,36.3
2019-01-03T04:01:48.723Z,36.3
2019-01-03T04:02:48.731Z,36.3
2019-01-03T04:03:48.717Z,33.3
2019-01-03T04:04:48.726Z,36.3
2019-01-03T04:05:48.812Z,45.3
2019-01-03T04:06:48.766Z,39.3
2019-01-03T04:07:48.723Z,42.3
2019-01-03T04:08:48.726Z,39.3
2019-01-03T04:09:48.721Z,36.3
2019-01-03T04:10:48.788Z,39.3
2019-01-03T04:11:48.696Z,39.3
2019-01-03T04:12:48.718Z,39.3
2019-01-03T04:13:48.799Z,45.3
2019-01-03T04:14:48.719Z,39.3
2019-01-03T04:15:48.732Z,42.3
2019-01-03T04:16:48.721Z,39.3
2019-01-03T04:17:48.755Z,33.3
2019-01-03T04:18:48.781Z,36.3
2019-01-03T04:19:48.709Z,36.3
2019-01-03T04:20:48.738Z,39.3
2019-01-03T04:21:48.729Z,36.3
2019-01-03T04:22:48.775Z,33.3
2019-01-03T04:23:48.698Z,39.3
2019-01-03T04:24:48.725Z,36.3
2019-01-03T04:25:48.723Z,33.3
2019-01-03T04:26:48.717Z,33.3
2019-01-03T04:27:48.786Z,36.3
2019-01-03T04:28:48.682Z,36.3
2019-01-03T04:29:48.717Z,36.3
2019-01-03T04:30:48.729Z,33.3
2019-01-03T04:31:48.791Z,36.3
2019-01-03T04:32:48.727Z,33.3
2019-01-03T04:33:48.696Z,33.3
2019-01-03T04:34:48.711Z,36.3
2019-01-03T04:35:48.730Z,36.3
2019-01-03T04:36:48.761Z,39.3
2019-01-03T04:37:48.719Z,36.3
2019-01-03T04:38:48.716Z,36.3
2019-01-03T04:39:48.762Z,33.3
2019-01-03T04:40:48.710Z,33.3
2019-01-03T04:41:48.782Z,33.3
2019-01-03T04:42:48.717Z,33.3
2019-01-03T04:43:48.716Z,39.3
2019-01-03T04:44:48.681Z,36.3
2019-01-03T04:45:48.709Z,33.3
2019-01-03T04:46:48.826Z,33.3
2019-01-03T04:47:48.719Z,33.3
2019-01-03T04:48:48.706Z,33.3
2019-01-03T04:49:48.682Z,30.3
2019-01-03T04:50:48.748Z,33.3
2019-01-03T04:51:48.716Z,33.3
2019-01-03T04:52:48.727Z,30.3
2019-01-03T04:53:48.725Z,30.3
2019-01-03T04:54:48.773Z,33.3
2019-01-03T04:55:48.681Z,30.3
2019-01-03T04:56:48.691Z,30.3
2019-01-03T04:57:48.718Z,30.3
2019-01-03T04:58:48.714Z,33.3
2019-01-03T04:59:48.763Z,27.3
2019-01-03T05:00:48.669Z,27.3
2019-01-03T05:01:48.672Z,27.3
2019-01-03T05:02:48.703Z,24.3
2019-01-03T05:03:48.699Z,27.3
2019-01-03T05:04:48.774Z,27.3
2019-01-03T05:05:48.691Z,24.3
2019-01-03T05:06:48.670Z,30.3
2019-01-03T05:07:48.695Z,30.3
2019-01-03T05:08:48.690Z,27.3
2019-01-03T05:09:48.767Z,27.3
2019-01-03T05:10:48.771Z,30.3
2019-01-03T05:11:48.730Z,33.3
2019-01-03T05:12:48.662Z,30.3
2019-01-03T05:13:48.698Z,27.3
2019-01-03T05:14:48.701Z,30.3
2019-01-03T05:15:48.718Z,30.3
2019-01-03T05:16:48.748Z,30.3
2019-01-03T05:17:48.679Z,30.3
2019-01-03T05:18:48.763Z,33.3
2019-01-03T05:19:48.696Z,33.3
2019-01-03T05:20:48.718Z,33.3
2019-01-03T05:21:48.771Z,33.3
2019-01-03T05:22:48.670Z,33.3
2019-01-03T05:23:48.835Z,33.3
2019-01-03T05:24:48.695Z,33.3
2019-01-03T05:25:48.686Z,36.3
2019-01-03T05:26:48.746Z,36.3
2019-01-03T05:27:48.700Z,33.3
2019-01-03T05:28:48.751Z,36.3
2019-01-03T05:29:48.682Z,33.3
2019-01-03T05:30:48.704Z,33.3
2019-01-03T05:31:48.754Z,33.3
2019-01-03T05:32:48.687Z,33.3
2019-01-03T05:33:48.731Z,33.3
2019-01-03T05:34:48.746Z,33.3
2019-01-03T05:35:48.681Z,33.3
2019-01-03T05:36:48.684Z,33.3
2019-01-03T05:37:48.764Z,30.3
2019-01-03T05:38:48.648Z,33.3
2019-01-03T05:39:48.687Z,27.3
2019-01-03T05:40:48.695Z,33.3
2019-01-03T05:41:48.765Z,33.3
2019-01-03T05:42:48.697Z,30.3
2019-01-03T05:43:48.674Z,30.3
2019-01-03T05:44:48.671Z,27.3
2019-01-03T05:45:48.688Z,27.3
2019-01-03T05:46:48.767Z,30.3
2019-01-03T05:47:48.677Z,27.3
2019-01-03T05:48:48.683Z,30.3
2019-01-03T05:49:48.655Z,33.3
2019-01-03T05:50:48.759Z,33.3
2019-01-03T05:51:48.726Z,30.3
2019-01-03T05:52:48.688Z,30.3
2019-01-03T05:53:48.731Z,30.3
2019-01-03T05:54:48.678Z,30.3
2019-01-03T05:55:48.658Z,27.3
2019-01-03T05:56:48.748Z,30.3
2019-01-03T05:57:48.678Z,27.3
2019-01-03T05:58:48.729Z,27.3
2019-01-03T05:59:48.684Z,24.3
2019-01-03T06:00:48.732Z,24.3
2019-01-03T06:01:48.645Z,24.3
2019-01-03T06:02:48.674Z,24.3
2019-01-03T06:03:48.677Z,24.3
2019-01-03T06:04:48.678Z,27.3
2019-01-03T06:05:48.741Z,24.3
2019-01-03T06:06:48.642Z,24.3
2019-01-03T06:07:48.676Z,24.3
2019-01-03T06:08:48.679Z,24.3
2019-01-03T06:09:48.797Z,24.3
2019-01-03T06:10:48.744Z,21.3
2019-01-03T06:11:48.650Z,24.3
2019-01-03T06:12:48.643Z,24.3
2019-01-03T06:13:48.667Z,27.3
2019-01-03T06:14:48.676Z,27.3
2019-01-03T06:15:48.741Z,24.3
2019-01-03T06:16:48.668Z,24.3
2019-01-03T06:17:48.645Z,27.3
2019-01-03T06:18:48.676Z,27.3
2019-01-03T06:19:48.667Z,24.3
2019-01-03T06:20:48.747Z,27.3
2019-01-03T06:21:48.662Z,27.3
2019-01-03T06:22:48.627Z,27.3
2019-01-03T06:23:48.684Z,27.3
2019-01-03T06:24:48.666Z,27.3
2019-01-03T06:25:48.739Z,30.3
2019-01-03T06:26:48.679Z,27.3
2019-01-03T06:27:48.694Z,27.3
2019-01-03T06:28:48.718Z,30.3
2019-01-03T06:29:48.660Z,27.3
2019-01-03T06:30:48.667Z,33.3
2019-01-03T06:31:48.659Z,30.3
2019-01-03T06:32:48.660Z,30.3
2019-01-03T06:33:48.698Z,33.3
2019-01-03T06:34:48.671Z,36.3
2019-01-03T06:35:48.665Z,33.3
2019-01-03T06:36:48.692Z,36.3
2019-01-03T06:37:48.676Z,36.3
2019-01-03T06:38:48.708Z,36.3
2019-01-03T06:39:48.660Z,33.3
2019-01-03T06:40:48.658Z,36.3
2019-01-03T06:41:48.647Z,30.3
2019-01-03T06:42:48.717Z,36.3
2019-01-03T06:43:48.660Z,33.3
2019-01-03T06:44:48.630Z,33.3
2019-01-03T06:45:48.683Z,33.3
2019-01-03T06:46:48.651Z,36.3
2019-01-03T06:47:48.724Z,33.3
2019-01-03T06:48:48.715Z,33.3
2019-01-03T06:49:48.637Z,36.3
2019-01-03T06:50:48.663Z,33.3
2019-01-03T06:51:48.716Z,33.3
2019-01-03T06:52:48.718Z,33.3
2019-01-03T06:53:48.656Z,36.3
2019-01-03T06:54:48.664Z,36.3
2019-01-03T06:55:48.633Z,33.3
2019-01-03T06:56:48.641Z,33.3
2019-01-03T06:57:48.762Z,36.3
2019-01-03T06:58:48.736Z,30.3
2019-01-03T06:59:48.639Z,36.3
2019-01-03T07:00:48.622Z,30.3
2019-01-03T07:01:48.690Z,30.3
2019-01-03T07:02:48.645Z,30.3
2019-01-03T07:03:48.738Z,30.3
2019-01-03T07:04:48.644Z,30.3
2019-01-03T07:05:48.715Z,36.3
2019-01-03T07:06:48.609Z,33.3
2019-01-03T07:07:48.646Z,36.3
2019-01-03T07:08:48.638Z,30.3
2019-01-03T07:09:48.647Z,30.3
2019-01-03T07:10:49.529Z,27.3
2019-01-03T07:11:48.628Z,36.3
2019-01-03T07:13:02.545Z,30.3
2019-01-03T07:14:02.487Z,27.3
2019-01-03T07:15:03.415Z,30.3
2019-01-03T07:16:02.580Z,30.3
2019-01-03T07:17:02.995Z,30.3
2019-01-03T07:18:02.615Z,30.3
2019-01-03T07:19:02.885Z,33.3
2019-01-03T07:20:02.500Z,27.3
2019-01-03T07:21:02.787Z,30.3
2019-01-03T07:22:02.536Z,27.3
2019-01-03T07:23:02.725Z,30.3
2019-01-03T07:24:02.499Z,27.3
2019-01-03T07:25:02.877Z,30.3
2019-01-03T07:26:02.572Z,30.3
2019-01-03T07:27:02.560Z,30.3
2019-01-03T07:28:02.553Z,27.3
2019-01-03T07:29:02.448Z,33.3
2019-01-03T07:30:04.833Z,33.3
2019-01-03T07:31:02.464Z,33.3
2019-01-03T07:32:02.953Z,33.3
2019-01-03T07:33:02.651Z,36.3
2019-01-03T07:34:02.951Z,33.3
2019-01-03T07:35:04.018Z,36.3
2019-01-03T07:36:02.483Z,33.3
2019-01-03T07:37:04.672Z,36.3
2019-01-03T07:38:05.213Z,30.3
2019-01-03T07:39:04.873Z,36.3
2019-01-03T07:40:03.256Z,39.3
2019-01-03T07:41:04.881Z,42.3
2019-01-03T07:42:02.896Z,36.3
2019-01-03T07:43:03.926Z,36.3
2019-01-03T07:44:03.160Z,36.3
2019-01-03T07:45:03.218Z,33.3
2019-01-03T07:46:03.335Z,33.3
2019-01-03T07:47:03.428Z,33.3
2019-01-03T07:48:03.454Z,36.3
2019-01-03T07:49:06.572Z,33.3
2019-01-03T07:50:08.583Z,33.3
2019-01-03T07:51:02.783Z,33.3
2019-01-03T07:52:04.369Z,36.3
2019-01-03T07:53:06.143Z,33.3
2019-01-03T07:54:05.716Z,33.3
2019-01-03T07:55:04.168Z,36.3
2019-01-03T07:56:03.758Z,33.3
2019-01-03T07:57:07.234Z,33.3
2019-01-03T07:58:02.880Z,33.3
2019-01-03T07:59:03.616Z,33.3
2019-01-03T08:00:02.946Z,33.3
2019-01-03T08:01:05.074Z,33.3
2019-01-03T08:02:02.477Z,33.3
2019-01-03T08:03:04.770Z,39.3
2019-01-03T08:04:04.527Z,33.3
2019-01-03T08:05:05.909Z,36.3
2019-01-03T08:06:03.260Z,36.3
2019-01-03T08:07:03.094Z,36.3
2019-01-03T08:08:04.394Z,36.3
2019-01-03T08:09:02.787Z,33.3
2019-01-03T08:10:03.078Z,33.3
2019-01-03T08:11:03.010Z,33.3
2019-01-03T08:12:04.543Z,33.3
2019-01-03T08:13:03.148Z,33.3
2019-01-03T08:14:03.223Z,111.5
2019-01-03T08:15:02.963Z,96.5
2019-01-03T08:16:03.664Z,105.5
2019-01-03T08:17:04.887Z,102.5
2019-01-03T08:18:02.906Z,120.6
2019-01-03T08:19:04.087Z,111.5
2019-01-03T08:20:03.923Z,105.5
2019-01-03T08:21:07.335Z,120.6
2019-01-03T08:22:03.239Z,105.5
2019-01-03T08:23:03.037Z,123.6
2019-01-03T08:24:03.854Z,102.5
2019-01-03T08:25:03.063Z,120.6
2019-01-03T08:26:03.073Z,102.5
2019-01-03T08:27:03.335Z,36.3
2019-01-03T08:28:02.510Z,39.3
2019-01-03T08:29:05.133Z,39.3
2019-01-03T08:30:04.965Z,42.3
2019-01-03T08:31:02.766Z,42.3
2019-01-03T08:32:04.011Z,42.3
2019-01-03T08:33:03.164Z,42.3
2019-01-03T08:34:03.286Z,42.3
2019-01-03T08:35:04.079Z,42.3
2019-01-03T08:36:02.994Z,45.3
2019-01-03T08:37:03.056Z,48.3
2019-01-03T08:38:03.977Z,45.3
2019-01-03T08:39:04.006Z,42.3
2019-01-03T08:40:03.275Z,42.3
2019-01-03T08:41:02.947Z,45.3
2019-01-03T08:42:03.062Z,36.3
2019-01-03T08:43:07.054Z,42.3
2019-01-03T08:44:02.438Z,42.3
2019-01-03T08:45:05.797Z,42.3
2019-01-03T08:46:02.826Z,39.3
2019-01-03T08:47:02.473Z,42.3
2019-01-03T08:48:02.475Z,42.3
2019-01-03T08:49:02.543Z,42.3
2019-01-03T08:50:02.440Z,42.3
2019-01-03T08:51:02.463Z,42.3
2019-01-03T08:52:02.500Z,39.3
2019-01-03T08:53:02.536Z,36.3
2019-01-03T08:54:02.435Z,45.3
2019-01-03T08:55:02.484Z,39.3
2019-01-03T08:56:02.445Z,42.3
2019-01-03T08:57:02.477Z,42.3
2019-01-03T08:58:02.471Z,42.3
2019-01-03T08:59:02.696Z,39.3
2019-01-03T09:00:02.465Z,45.3
2019-01-03T09:01:02.421Z,45.3
2019-01-03T09:02:02.523Z,42.3
2019-01-03T09:03:02.474Z,39.3
2019-01-03T09:04:02.463Z,42.3
2019-01-03T09:05:02.460Z,123.6
2019-01-03T09:06:02.560Z,42.3
2019-01-03T09:07:02.424Z,42.3
2019-01-03T09:08:03.206Z,42.3
2019-01-03T09:09:02.480Z,45.3
2019-01-03T09:10:02.540Z,45.3
2019-01-03T09:11:02.454Z,42.3
2019-01-03T09:12:02.482Z,36.3
2019-01-03T09:13:02.481Z,39.3
2019-01-03T09:14:02.519Z,42.3
2019-01-03T09:15:02.455Z,42.3
2019-01-03T09:16:02.456Z,42.3
2019-01-03T09:17:02.571Z,45.3
2019-01-03T09:18:03.103Z,42.3
2019-01-03T09:19:03.046Z,45.3
2019-01-03T09:20:02.453Z,45.3
2019-01-03T09:21:02.468Z,45.3
2019-01-03T09:22:02.644Z,45.3
2019-01-03T09:23:02.436Z,45.3
2019-01-03T09:24:02.442Z,45.3
2019-01-03T09:25:02.460Z,45.3
2019-01-03T09:26:02.453Z,48.3
2019-01-03T09:27:02.520Z,51.3
2019-01-03T09:28:02.434Z,51.3
2019-01-03T09:29:02.448Z,45.3
2019-01-03T09:30:02.508Z,48.3
2019-01-03T09:31:02.445Z,48.3
2019-01-03T09:32:02.454Z,54.3
2019-01-03T09:33:02.513Z,51.3
2019-01-03T09:34:02.422Z,48.3
2019-01-03T09:35:02.471Z,42.3
2019-01-03T09:36:02.445Z,51.3
2019-01-03T09:37:02.446Z,54.3
2019-01-03T09:38:02.439Z,54.3
2019-01-03T09:39:02.487Z,48.3
2019-01-03T09:40:02.441Z,48.3
2019-01-03T09:41:02.444Z,51.3
2019-01-03T09:42:02.468Z,48.3
2019-01-03T09:43:02.455Z,45.3
2019-01-03T09:44:02.527Z,42.3
2019-01-03T09:45:02.423Z,39.3
2019-01-03T09:46:02.445Z,54.3
2019-01-03T09:47:02.446Z,51.3
2019-01-03T09:48:02.508Z,51.3
2019-01-03T09:49:02.446Z,48.3
2019-01-03T09:50:02.466Z,48.3
2019-01-03T09:51:02.708Z,54.3
2019-01-03T09:52:03.168Z,45.3
2019-01-03T09:53:02.425Z,48.3
2019-01-03T09:54:02.457Z,48.3
2019-01-03T09:55:04.944Z,48.3
2019-01-03T09:56:02.485Z,51.3
2019-01-03T09:57:02.422Z,48.3
2019-01-03T09:58:02.452Z,51.3
2019-01-03T09:59:02.447Z,48.3
2019-01-03T10:00:02.451Z,48.3
2019-01-03T10:01:04.717Z,51.3
2019-01-03T10:02:02.425Z,54.3
2019-01-03T10:03:03.213Z,51.3
2019-01-03T10:04:02.744Z,54.3
2019-01-03T10:05:02.417Z,54.3
2019-01-03T10:06:02.735Z,51.3
2019-01-03T10:07:02.418Z,60.3
2019-01-03T10:08:02.517Z,48.3
2019-01-03T10:09:02.449Z,45.3
2019-01-03T10:10:02.518Z,48.3
2019-01-03T10:11:02.506Z,51.3
2019-01-03T10:12:02.526Z,48.3
2019-01-03T10:13:02.421Z,48.3
2019-01-03T10:14:02.485Z,51.3
2019-01-03T10:15:03.415Z,54.3
2019-01-03T10:16:02.424Z,54.3
2019-01-03T10:17:02.747Z,51.3
2019-01-03T10:18:02.412Z,48.3
2019-01-03T10:19:03.425Z,57.3
2019-01-03T10:20:02.431Z,51.3
2019-01-03T10:21:02.413Z,54.3
2019-01-03T10:22:02.442Z,60.3
2019-01-03T10:23:04.621Z,60.3
2019-01-03T10:24:02.474Z,51.3
2019-01-03T10:25:02.583Z,48.3
2019-01-03T10:26:02.441Z,48.3
2019-01-03T10:27:04.999Z,51.3
2019-01-03T10:28:02.493Z,48.3
2019-01-03T10:29:02.563Z,54.3
2019-01-03T10:30:02.424Z,60.3
2019-01-03T10:31:02.496Z,54.3
2019-01-03T10:32:02.574Z,51.3
2019-01-03T10:33:02.456Z,51.3
2019-01-03T10:34:02.502Z,57.3
2019-01-03T10:35:02.767Z,60.3
2019-01-03T10:36:08.471Z,60.3
2019-01-03T10:37:08.449Z,57.3
2019-01-03T10:38:08.479Z,60.3
2019-01-03T10:39:08.516Z,57.3
2019-01-03T10:40:08.597Z,60.3
2019-01-03T10:41:08.477Z,60.3
2019-01-03T10:42:08.485Z,63.4
2019-01-03T10:43:08.486Z,60.3
2019-01-03T10:44:08.516Z,63.4
2019-01-03T10:45:11.799Z,66.4
2019-01-03T10:46:08.456Z,60.3
2019-01-03T10:47:08.450Z,60.3
2019-01-03T10:48:08.452Z,63.4
2019-01-03T10:49:08.491Z,63.4
2019-01-03T10:50:08.510Z,63.4
2019-01-03T10:51:08.481Z,54.3
2019-01-03T10:52:08.479Z,60.3
2019-01-03T10:53:08.485Z,60.3
2019-01-03T10:54:08.484Z,60.3
2019-01-03T10:55:08.685Z,63.4
2019-01-03T10:56:08.535Z,66.4
2019-01-03T10:57:08.478Z,63.4
2019-01-03T10:58:08.479Z,66.4
2019-01-03T10:59:08.478Z,69.4
2019-01-03T11:00:08.539Z,72.4
2019-01-03T11:01:08.458Z,54.3
2019-01-03T11:02:08.572Z,60.3
2019-01-03T11:03:08.551Z,66.4
2019-01-03T11:04:09.607Z,69.4
2019-01-03T11:05:08.486Z,60.3
2019-01-03T11:06:08.464Z,66.4
2019-01-03T11:07:08.475Z,69.4
2019-01-03T11:08:08.537Z,69.4
2019-01-03T11:09:08.484Z,66.4
2019-01-03T11:10:08.481Z,60.3
2019-01-03T11:11:08.483Z,54.3
2019-01-03T11:12:08.505Z,63.4
2019-01-03T11:13:08.524Z,63.4
2019-01-03T11:14:21.929Z,57.3
2019-01-03T11:15:08.486Z,57.3
2019-01-03T11:16:08.495Z,54.3
2019-01-03T11:17:09.599Z,60.3
2019-01-03T11:18:08.572Z,63.4
2019-01-03T11:19:08.485Z,60.3
2019-01-03T11:20:08.476Z,60.3
2019-01-03T11:21:08.478Z,60.3
2019-01-03T11:22:08.460Z,63.4
2019-01-03T11:23:08.561Z,63.4
2019-01-03T11:24:08.484Z,60.3
2019-01-03T11:25:08.451Z,63.4
2019-01-03T11:26:08.489Z,63.4
2019-01-03T11:27:08.492Z,60.3
2019-01-03T11:28:09.517Z,66.4
2019-01-03T11:29:08.479Z,60.3
2019-01-03T11:30:08.480Z,63.4
2019-01-03T11:31:08.598Z,60.3
2019-01-03T11:32:08.572Z,63.4
2019-01-03T11:33:08.489Z,60.3
2019-01-03T11:34:08.578Z,63.4
2019-01-03T11:35:08.566Z,60.3
2019-01-03T11:36:08.446Z,66.4
2019-01-03T11:37:08.478Z,66.4
2019-01-03T11:38:08.479Z,60.3
2019-01-03T11:39:08.451Z,66.4
2019-01-03T11:40:08.560Z,66.4
2019-01-03T11:41:08.463Z,66.4
2019-01-03T11:42:08.618Z,66.4
2019-01-03T11:43:08.525Z,69.4
2019-01-03T11:44:08.462Z,60.3
2019-01-03T11:45:08.464Z,63.4
2019-01-03T11:46:08.494Z,60.3
2019-01-03T11:47:08.623Z,72.4
2019-01-03T11:48:08.673Z,66.4
2019-01-03T11:49:08.464Z,69.4
2019-01-03T11:50:08.451Z,75.4
2019-01-03T11:51:08.506Z,63.4
2019-01-03T11:52:08.459Z,66.4
2019-01-03T11:53:08.545Z,66.4
2019-01-03T11:54:08.482Z,63.4
2019-01-03T11:55:08.450Z,66.4
2019-01-03T11:56:08.437Z,66.4
2019-01-03T11:57:08.530Z,66.4
2019-01-03T11:58:08.570Z,66.4
2019-01-03T11:59:08.481Z,72.4
2019-01-03T12:00:08.465Z,60.3
2019-01-03T12:01:08.509Z,54.3
2019-01-03T12:02:08.471Z,60.3
2019-01-03T12:03:08.473Z,66.4
2019-01-03T12:04:08.469Z,60.3
2019-01-03T12:05:08.531Z,63.4
2019-01-03T12:06:08.443Z,66.4
2019-01-03T12:07:08.448Z,66.4
2019-01-03T12:08:08.480Z,63.4
2019-01-03T12:09:08.469Z,66.4
2019-01-03T12:10:08.474Z,57.3
2019-01-03T12:11:08.474Z,66.4
2019-01-03T12:12:08.494Z,57.3
2019-01-03T12:13:08.537Z,63.4
2019-01-03T12:14:08.469Z,63.4
2019-01-03T12:15:08.544Z,60.3
2019-01-03T12:16:08.481Z,63.4
2019-01-03T12:17:08.494Z,63.4
2019-01-03T12:18:08.448Z,69.4
2019-01-03T12:19:14.583Z,66.4
2019-01-03T12:20:14.789Z,57.3
2019-01-03T12:21:14.631Z,63.4
2019-01-03T12:22:16.794Z,63.4
2019-01-03T12:23:14.545Z,54.3
2019-01-03T12:24:14.579Z,60.3
2019-01-03T12:25:14.642Z,63.4
2019-01-03T12:26:14.584Z,63.4
2019-01-03T12:27:14.648Z,60.3
2019-01-03T12:28:14.620Z,57.3
2019-01-03T12:29:14.584Z,60.3
2019-01-03T12:30:14.592Z,63.4
2019-01-03T12:31:14.569Z,63.4
2019-01-03T12:32:14.581Z,66.4
2019-01-03T12:33:14.616Z,66.4
2019-01-03T12:34:14.745Z,60.3
2019-01-03T12:35:17.462Z,66.4
2019-01-03T12:36:14.614Z,57.3
2019-01-03T12:37:14.572Z,60.3
2019-01-03T12:38:14.627Z,54.3
2019-01-03T12:39:14.556Z,60.3
2019-01-03T12:40:15.070Z,57.3
2019-01-03T12:41:14.706Z,63.4
2019-01-03T12:42:14.818Z,66.4
2019-01-03T12:43:14.582Z,63.4
2019-01-03T12:45:16.761Z,69.4
2019-01-03T12:46:16.758Z,66.4
2019-01-03T12:47:16.837Z,72.4
2019-01-03T12:48:16.767Z,66.4
2019-01-03T12:49:16.935Z,66.4
2019-01-03T12:50:16.792Z,60.3
2019-01-03T12:51:17.014Z,60.3
2019-01-03T12:52:16.894Z,57.3
2019-01-03T12:53:17.140Z,60.3
2019-01-03T12:54:17.253Z,66.4
2019-01-03T12:55:16.748Z,60.3
2019-01-03T12:56:16.746Z,66.4
2019-01-03T12:57:16.848Z,63.4
2019-01-03T12:58:16.748Z,66.4
2019-01-03T12:59:16.951Z,69.4
2019-01-03T13:00:16.810Z,60.3
2019-01-03T13:01:16.761Z,63.4
2019-01-03T13:02:16.797Z,69.4
2019-01-03T13:03:16.841Z,69.4
2019-01-03T13:04:17.039Z,69.4
2019-01-03T13:05:19.060Z,66.4
2019-01-03T13:06:23.005Z,63.4
2019-01-03T13:07:16.764Z,69.4
2019-01-03T13:08:16.760Z,75.4
2019-01-03T13:09:17.256Z,66.4
2019-01-03T13:10:16.748Z,75.4
2019-01-03T13:11:16.745Z,75.4
2019-01-03T13:12:19.314Z,69.4
2019-01-03T13:13:16.801Z,63.4
2019-01-03T13:14:17.500Z,69.4
2019-01-03T13:15:16.875Z,75.4
2019-01-03T13:16:16.844Z,75.4
2019-01-03T13:17:17.827Z,72.4
2019-01-03T13:18:16.822Z,75.4
2019-01-03T13:19:18.331Z,75.4
2019-01-03T13:20:17.004Z,63.4